Grande Congo — IBPI — position and weather

sailwx.info

Track history (hours):
 
Tides and Currents Weather Stations Pressure Air Temp Water Temp Dewpoint Dewpoint Depression Visibility Wind Speed Wind Dir Waves Ship Positions

Grande Congo

Last reported at 2018-Jul-11 22:23 UTC. Time now 2018-Jul-23 13:50 UTC.
Position N 37°53' E 025°35'.
Warning: this ship's position is 11 days out of date.

Length 211 m; draft 7.7 m.

Type: Cargo ship. MMSI: 247302700.

Date/timePositionNaut miles runAvg speedWind from/ knotsBaromVisibWave heightAir tempDewpointWater temp
2018-Jul-11 22:23N 37°53' E 025°35'1116.1
2018-Jul-11 21:40N 37°42' E 025°39'416.0
2018-Jul-11 21:26N 37°39' E 025°41'1114.8
2018-Jul-11 20:43N 37°30' E 025°49'315.4
2018-Jul-11 20:31N 37°29' E 025°52'43014.4
2018-Jul-10 14:36N 34°48' E 034°06'71 1.8
2018-Jul-08 23:55N 33°55' E 035°02'3113.6
2018-Jul-08 21:37N 33°55' E 034°24'314.0
2018-Jul-08 21:22N 33°55' E 034°20'514.2
2018-Jul-08 21:00N 33°55' E 034°14'2713.9
2018-Jul-08 19:06N 33°56' E 033°42'413.8
2018-Jul-08 18:47N 33°56' E 033°37'413.9
2018-Jul-08 18:30N 33°56' E 033°32'913.6
2018-Jul-08 17:50N 33°56' E 033°21'513.7
2018-Jul-08 17:30N 33°56' E 033°16'4914.1
2018-Jul-08 14:02N 34°00' E 032°17'3314.1
2018-Jul-08 11:40N 34°04' E 031°37'  
2018-Jul-02 11:29N 35°44' E 015°37'1018.2
2018-Jul-02 10:58N 35°49' E 015°27'818.1
2018-Jul-02 10:30N 35°53' E 015°18'918.0
2018-Jul-02 10:00N 35°58' E 015°08'918.4
2018-Jul-02 09:30N 36°03' E 014°59'918.9
2018-Jul-02 09:00N 36°08' E 014°50'918.6
2018-Jul-02 08:30N 36°13' E 014°39'918.8
2018-Jul-02 08:00N 36°16' E 014°28'918.4
2018-Jul-02 07:30N 36°19' E 014°18'2518.2
2018-Jul-02 06:09N 36°28' E 013°49'2018.0
2018-Jul-02 05:04N 36°34' E 013°26'417.7
2018-Jul-02 04:50N 36°36' E 013°21'  
Track history (hours):
 
Tides and Currents Weather Stations Pressure Air Temp Water Temp Dewpoint Dewpoint Depression Visibility Wind Speed Wind Dir Waves Ship Positions

Grande Congo

Last reported at 2018-Jul-11 22:23 UTC. Time now 2018-Jul-23 13:50 UTC.
Position N 37°53' E 025°35'.
Warning: this ship's position is 11 days out of date.

Length 211 m; draft 7.7 m.

Type: Cargo ship. MMSI: 247302700.

Date/timePositionNaut miles runAvg speedWind from/ knotsBaromVisibWave heightAir tempDewpointWater temp
2018-Jul-11 22:23N 37°53' E 025°35'1116.1
2018-Jul-11 21:40N 37°42' E 025°39'416.0
2018-Jul-11 21:26N 37°39' E 025°41'1114.8
2018-Jul-11 20:43N 37°30' E 025°49'315.4
2018-Jul-11 20:31N 37°29' E 025°52'43014.4
2018-Jul-10 14:36N 34°48' E 034°06'71 1.8
2018-Jul-08 23:55N 33°55' E 035°02'3113.6
2018-Jul-08 21:37N 33°55' E 034°24'314.0
2018-Jul-08 21:22N 33°55' E 034°20'514.2
2018-Jul-08 21:00N 33°55' E 034°14'2713.9
2018-Jul-08 19:06N 33°56' E 033°42'413.8
2018-Jul-08 18:47N 33°56' E 033°37'413.9
2018-Jul-08 18:30N 33°56' E 033°32'913.6
2018-Jul-08 17:50N 33°56' E 033°21'513.7
2018-Jul-08 17:30N 33°56' E 033°16'4914.1
2018-Jul-08 14:02N 34°00' E 032°17'3314.1
2018-Jul-08 11:40N 34°04' E 031°37'  
2018-Jul-02 11:29N 35°44' E 015°37'1018.2
2018-Jul-02 10:58N 35°49' E 015°27'818.1
2018-Jul-02 10:30N 35°53' E 015°18'918.0
2018-Jul-02 10:00N 35°58' E 015°08'918.4
2018-Jul-02 09:30N 36°03' E 014°59'918.9
2018-Jul-02 09:00N 36°08' E 014°50'918.6
2018-Jul-02 08:30N 36°13' E 014°39'918.8
2018-Jul-02 08:00N 36°16' E 014°28'918.4
2018-Jul-02 07:30N 36°19' E 014°18'2518.2
2018-Jul-02 06:09N 36°28' E 013°49'2018.0
2018-Jul-02 05:04N 36°34' E 013°26'417.7
2018-Jul-02 04:50N 36°36' E 013°21'  

Dump ship's entire track history